createdAt,value
2017-07-15T00:00:57.259Z,25.7
2017-07-15T00:01:58.257Z,25.6
2017-07-15T00:02:59.003Z,25.6
2017-07-15T00:03:59.798Z,25.6
2017-07-15T00:05:00.530Z,25.6
2017-07-15T00:06:01.269Z,25.6
2017-07-15T00:07:01.969Z,25.6
2017-07-15T00:08:02.951Z,25.6
2017-07-15T00:09:03.797Z,25.6
2017-07-15T00:10:04.535Z,25.6
2017-07-15T00:11:05.221Z,25.6
2017-07-15T00:12:05.913Z,25.6
2017-07-15T00:13:06.618Z,25.6
2017-07-15T00:14:07.638Z,25.5
2017-07-15T00:15:08.346Z,25.5
2017-07-15T00:16:09.015Z,25.6
2017-07-15T00:18:25.243Z,25.5
2017-07-15T00:19:26.075Z,25.6
2017-07-15T00:20:27.079Z,25.5
2017-07-15T00:21:27.765Z,25.4
2017-07-15T00:22:28.478Z,25.5
2017-07-15T00:23:29.133Z,25.5
2017-07-15T00:24:29.825Z,25.5
2017-07-15T00:25:30.523Z,25.5
2017-07-15T00:26:31.461Z,25.5
2017-07-15T00:27:32.207Z,25.5
2017-07-15T00:28:32.898Z,25.5
2017-07-15T00:29:33.680Z,25.5
2017-07-15T00:30:34.366Z,25.5
2017-07-15T00:31:35.074Z,25.5
2017-07-15T00:32:35.755Z,25.5
2017-07-15T00:33:36.819Z,25.5
2017-07-15T00:34:37.572Z,25.5
2017-07-15T00:35:38.264Z,25.6
2017-07-15T00:36:39.006Z,25.5
2017-07-15T00:37:39.684Z,25.6
2017-07-15T00:38:40.376Z,25.5
2017-07-15T00:39:41.367Z,25.6
2017-07-15T00:40:42.060Z,25.5
2017-07-15T00:41:42.735Z,25.6
2017-07-15T00:42:43.465Z,25.6
2017-07-15T00:43:44.223Z,25.5
2017-07-15T00:44:44.915Z,25.6
2017-07-15T00:45:45.851Z,25.6
2017-07-15T00:46:46.542Z,25.5
2017-07-15T00:47:47.230Z,25.5
2017-07-15T00:48:47.971Z,25.5
2017-07-15T00:49:48.713Z,25.5
2017-07-15T00:50:49.409Z,25.5
2017-07-15T00:51:50.386Z,25.5
2017-07-15T00:52:51.083Z,25.5
2017-07-15T00:53:51.806Z,25.5
2017-07-15T00:54:52.487Z,25.5
2017-07-15T00:55:53.183Z,25.5
2017-07-15T00:56:53.875Z,25.5
2017-07-15T00:57:54.809Z,25.5
2017-07-15T00:58:55.558Z,25.4
2017-07-15T00:59:56.252Z,25.4
2017-07-15T01:00:57.102Z,25.4
2017-07-15T01:01:57.801Z,25.5
2017-07-15T01:02:58.479Z,25.4
2017-07-15T01:03:59.179Z,25.5
2017-07-15T01:05:00.165Z,25.4
2017-07-15T01:06:01.050Z,25.4
2017-07-15T01:07:01.735Z,25.5
2017-07-15T01:08:02.411Z,25.4
2017-07-15T01:09:03.102Z,25.5
2017-07-15T01:10:03.847Z,25.5
2017-07-15T01:11:04.878Z,25.4
2017-07-15T01:12:05.621Z,25.4
2017-07-15T01:13:06.297Z,25.4
2017-07-15T01:14:06.995Z,25.4
2017-07-15T01:15:07.683Z,25.5
2017-07-15T01:16:08.372Z,25.4
2017-07-15T01:17:09.418Z,25.4
2017-07-15T01:18:10.097Z,25.5
2017-07-15T01:19:10.752Z,25.4
2017-07-15T01:20:11.498Z,25.5
2017-07-15T01:21:12.571Z,25.4
2017-07-15T01:22:13.278Z,25.4
2017-07-15T01:23:14.260Z,25.4
2017-07-15T01:24:14.985Z,25.4
2017-07-15T01:25:15.654Z,25.4
2017-07-15T01:26:16.450Z,25.4
2017-07-15T01:27:17.112Z,25.4
2017-07-15T01:28:17.803Z,25.4
2017-07-15T01:29:18.804Z,25.5
2017-07-15T01:30:19.527Z,25.4
2017-07-15T01:31:20.213Z,25.5
2017-07-15T01:32:20.896Z,25.4
2017-07-15T01:33:21.587Z,25.3
2017-07-15T01:34:22.299Z,25.4
2017-07-15T01:35:23.269Z,25.4
2017-07-15T01:36:24.319Z,25.3
2017-07-15T01:37:25.112Z,25.3
2017-07-15T01:38:25.797Z,25.4
2017-07-15T01:39:26.503Z,25.3
2017-07-15T01:40:27.182Z,25.3
2017-07-15T01:41:28.241Z,25.3
2017-07-15T01:42:29.271Z,25.4
2017-07-15T01:43:29.941Z,25.3
2017-07-15T01:44:30.636Z,25.4
2017-07-15T01:45:31.308Z,25.3
2017-07-15T01:46:32.013Z,25.4
2017-07-15T01:47:32.746Z,25.3
2017-07-15T01:48:33.701Z,25.3
2017-07-15T01:49:34.393Z,25.4
2017-07-15T01:50:35.066Z,25.3
2017-07-15T01:51:36.090Z,25.3
2017-07-15T01:52:36.884Z,25.3
2017-07-15T01:53:37.566Z,25.2
2017-07-15T01:54:38.543Z,25.3
2017-07-15T01:55:39.241Z,25.3
2017-07-15T01:56:40.038Z,25.3
2017-07-15T01:57:40.758Z,25.4
2017-07-15T01:58:41.428Z,25.3
2017-07-15T01:59:42.109Z,25.3
2017-07-15T02:00:43.122Z,25.3
2017-07-15T02:01:43.785Z,25.3
2017-07-15T02:02:44.513Z,25.3
2017-07-15T02:03:45.558Z,25.4
2017-07-15T02:04:46.572Z,25.3
2017-07-15T02:05:47.247Z,25.2
2017-07-15T02:06:48.227Z,25.4
2017-07-15T02:07:48.923Z,25.2
2017-07-15T02:08:49.682Z,25.2
2017-07-15T02:09:50.550Z,25.2
2017-07-15T02:10:51.290Z,25.2
2017-07-15T02:11:51.976Z,25.3
2017-07-15T02:12:52.956Z,25.2
2017-07-15T02:13:53.614Z,25.3
2017-07-15T02:14:54.349Z,25.3
2017-07-15T02:15:55.029Z,25.2
2017-07-15T02:16:55.870Z,25.3
2017-07-15T02:17:56.567Z,25.2
2017-07-15T02:18:57.537Z,25.2
2017-07-15T02:19:58.239Z,25.2
2017-07-15T02:20:58.930Z,25.2
2017-07-15T02:21:59.631Z,25.3
2017-07-15T02:23:00.331Z,25.2
2017-07-15T02:24:01.025Z,25.2
2017-07-15T02:25:02.031Z,25.2
2017-07-15T02:26:02.714Z,25.2
2017-07-15T02:27:03.414Z,25.2
2017-07-15T02:28:04.263Z,25.2
2017-07-15T02:29:04.925Z,25.2
2017-07-15T02:30:05.618Z,25.1
2017-07-15T02:31:06.568Z,25.2
2017-07-15T02:32:07.249Z,25.2
2017-07-15T02:33:07.929Z,25.1
2017-07-15T02:34:08.695Z,25.1
2017-07-15T02:35:09.361Z,25.2
2017-07-15T02:36:10.042Z,25.2
2017-07-15T02:37:11.024Z,25.2
2017-07-15T02:38:11.766Z,25.2
2017-07-15T02:39:12.514Z,25.2
2017-07-15T02:40:13.208Z,25.1
2017-07-15T02:41:13.902Z,25.1
2017-07-15T02:42:14.595Z,25.2
2017-07-15T02:43:15.629Z,25.1
2017-07-15T02:44:16.301Z,25.2
2017-07-15T02:45:17.009Z,25.1
2017-07-15T02:46:17.685Z,25.1
2017-07-15T02:47:18.364Z,25.2
2017-07-15T02:48:19.345Z,25.1
2017-07-15T02:49:20.361Z,25.2
2017-07-15T02:50:21.051Z,25.1
2017-07-15T02:51:21.749Z,25.1
2017-07-15T02:52:22.436Z,25.2
2017-07-15T02:53:23.215Z,25.1
2017-07-15T02:54:24.172Z,25.1
2017-07-15T02:55:25.115Z,25.1
2017-07-15T02:56:25.821Z,25.1
2017-07-15T02:57:26.497Z,25.1
2017-07-15T02:58:27.190Z,25.1
2017-07-15T02:59:27.939Z,25.1
2017-07-15T03:00:28.650Z,25.1
2017-07-15T03:01:29.609Z,25.1
2017-07-15T03:02:30.611Z,25.2
2017-07-15T03:03:31.313Z,25.1
2017-07-15T03:04:32.365Z,25.1
2017-07-15T03:05:33.102Z,25.1
2017-07-15T03:06:33.781Z,25.0
2017-07-15T03:07:34.481Z,25.1
2017-07-15T03:08:35.443Z,25.1
2017-07-15T03:09:36.145Z,25.1
2017-07-15T03:10:36.901Z,25.1
2017-07-15T03:11:37.794Z,25.1
2017-07-15T03:12:38.476Z,25.1
2017-07-15T03:13:39.174Z,25.2
2017-07-15T03:14:40.181Z,25.1
2017-07-15T03:15:40.893Z,25.1
2017-07-15T03:16:41.725Z,25.1
2017-07-15T03:17:42.392Z,25.1
2017-07-15T03:18:43.161Z,25.1
2017-07-15T03:19:43.913Z,25.1
2017-07-15T03:20:44.613Z,25.1
2017-07-15T03:21:45.584Z,25.1
2017-07-15T03:22:46.283Z,25.1
2017-07-15T03:23:46.965Z,25.1
2017-07-15T03:24:47.682Z,25.1
2017-07-15T03:25:48.341Z,25.1
2017-07-15T03:26:49.383Z,25.2
2017-07-15T03:27:50.116Z,25.1
2017-07-15T03:28:50.794Z,25.2
2017-07-15T03:29:51.516Z,25.1
2017-07-15T03:30:52.230Z,25.1
2017-07-15T03:31:53.096Z,25.1
2017-07-15T03:32:53.852Z,25.1
2017-07-15T03:33:54.801Z,25.1
2017-07-15T03:34:55.545Z,25.1
2017-07-15T03:35:56.217Z,25.1
2017-07-15T03:36:57.230Z,25.2
2017-07-15T03:37:57.909Z,25.2
2017-07-15T03:38:58.614Z,25.1
2017-07-15T03:39:59.601Z,25.2
2017-07-15T03:41:00.568Z,25.1
2017-07-15T03:42:01.218Z,25.2
2017-07-15T03:43:01.906Z,25.1
2017-07-15T03:44:02.645Z,25.1
2017-07-15T03:45:03.352Z,25.2
2017-07-15T03:46:04.073Z,25.2
2017-07-15T03:47:05.077Z,25.2
2017-07-15T03:48:05.783Z,25.2
2017-07-15T03:49:06.481Z,25.1
2017-07-15T03:50:07.153Z,25.2
2017-07-15T03:51:07.887Z,25.1
2017-07-15T03:52:08.590Z,25.1
2017-07-15T03:53:09.545Z,25.2
2017-07-15T03:54:10.246Z,25.2
2017-07-15T03:55:10.915Z,25.1
2017-07-15T03:56:11.917Z,25.2
2017-07-15T03:57:12.615Z,25.2
2017-07-15T03:58:13.303Z,25.2
2017-07-15T03:59:14.336Z,25.1
2017-07-15T04:00:15.002Z,25.2
2017-07-15T04:01:16.222Z,25.2
2017-07-15T04:02:16.921Z,25.2
2017-07-15T04:03:17.627Z,25.2
2017-07-15T04:04:18.304Z,25.2
2017-07-15T04:05:19.329Z,25.2
2017-07-15T04:06:20.034Z,25.2
2017-07-15T04:07:20.952Z,25.2
2017-07-15T04:08:21.613Z,25.2
2017-07-15T04:09:23.326Z,25.2
2017-07-15T04:10:23.988Z,25.2
2017-07-15T04:11:25.032Z,25.2
2017-07-15T04:12:25.742Z,25.2
2017-07-15T04:13:26.462Z,25.2
2017-07-15T04:14:27.143Z,25.2
2017-07-15T04:15:27.872Z,25.3
2017-07-15T04:16:28.874Z,25.4
2017-07-15T04:17:29.925Z,25.2
2017-07-15T04:18:30.617Z,25.4
2017-07-15T04:19:31.290Z,25.4
2017-07-15T04:20:32.034Z,25.4
2017-07-15T04:21:32.797Z,25.4
2017-07-15T04:22:33.472Z,25.3
2017-07-15T04:23:34.480Z,25.3
2017-07-15T04:24:35.156Z,25.3
2017-07-15T04:25:35.849Z,25.4
2017-07-15T04:26:36.585Z,25.3
2017-07-15T04:27:37.306Z,25.3
2017-07-15T04:28:38.061Z,25.3
2017-07-15T04:29:38.823Z,25.3
2017-07-15T04:30:39.805Z,25.4
2017-07-15T04:31:40.532Z,25.4
2017-07-15T04:32:41.197Z,25.3
2017-07-15T04:33:42.125Z,25.4
2017-07-15T04:34:42.853Z,25.4
2017-07-15T04:35:43.587Z,25.4
2017-07-15T04:36:44.548Z,25.5
2017-07-15T04:37:45.236Z,25.4
2017-07-15T04:38:45.924Z,25.4
2017-07-15T04:39:46.705Z,25.4
2017-07-15T04:40:47.428Z,25.4
2017-07-15T04:41:48.099Z,25.4
2017-07-15T04:42:49.121Z,25.4
2017-07-15T04:43:49.790Z,25.3
2017-07-15T04:44:50.494Z,25.4
2017-07-15T04:45:51.281Z,25.5
2017-07-15T04:46:51.984Z,25.4
2017-07-15T04:47:52.730Z,25.5
2017-07-15T04:48:53.783Z,25.4
2017-07-15T04:49:54.578Z,25.5
2017-07-15T04:50:55.359Z,25.5
2017-07-15T04:51:56.056Z,25.5
2017-07-15T04:52:56.777Z,25.5
2017-07-15T04:53:57.453Z,25.6
2017-07-15T04:54:58.160Z,25.6
2017-07-15T04:55:58.954Z,25.6
2017-07-15T04:56:59.652Z,25.7
2017-07-15T04:58:00.375Z,25.7
2017-07-15T04:59:01.032Z,25.6
2017-07-15T05:00:01.817Z,25.7
2017-07-15T05:01:02.828Z,25.7
2017-07-15T05:02:04.006Z,25.7
2017-07-15T05:03:04.723Z,25.8
2017-07-15T05:04:05.437Z,25.8
2017-07-15T05:05:06.462Z,25.8
2017-07-15T05:06:07.099Z,25.8
2017-07-15T05:07:08.101Z,25.8
2017-07-15T05:08:08.781Z,25.7
2017-07-15T05:09:09.467Z,25.7
2017-07-15T05:10:10.216Z,25.8
2017-07-15T05:11:10.918Z,25.8
2017-07-15T05:12:11.679Z,25.8
2017-07-15T05:13:12.486Z,25.9
2017-07-15T05:14:13.529Z,25.9
2017-07-15T05:15:14.222Z,25.9
2017-07-15T05:16:14.964Z,25.9
2017-07-15T05:17:15.972Z,25.9
2017-07-15T05:18:16.846Z,25.9
2017-07-15T05:19:17.561Z,26.0
2017-07-15T05:20:18.537Z,25.9
2017-07-15T05:21:19.278Z,26.0
2017-07-15T05:22:19.983Z,25.9
2017-07-15T05:23:20.879Z,25.9
2017-07-15T05:24:21.568Z,26.0
2017-07-15T05:25:22.314Z,25.9
2017-07-15T05:26:23.266Z,26.0
2017-07-15T05:27:23.946Z,26.0
2017-07-15T05:28:24.964Z,26.0
2017-07-15T05:29:25.645Z,26.0
2017-07-15T05:30:26.358Z,26.0
2017-07-15T05:31:27.106Z,26.0
2017-07-15T05:32:28.034Z,26.0
2017-07-15T05:33:28.832Z,26.0
2017-07-15T05:34:29.535Z,26.0
2017-07-15T05:35:30.233Z,26.0
2017-07-15T05:36:30.917Z,26.1
2017-07-15T05:37:31.654Z,26.1
2017-07-15T05:38:32.653Z,26.1
2017-07-15T05:39:33.369Z,26.1
2017-07-15T05:40:34.105Z,26.1
2017-07-15T05:41:34.871Z,26.2
2017-07-15T05:42:35.558Z,26.2
2017-07-15T05:43:36.313Z,26.1
2017-07-15T05:44:37.303Z,26.1
2017-07-15T05:45:38.026Z,26.2
2017-07-15T05:46:38.751Z,26.2
2017-07-15T05:47:39.419Z,26.2
2017-07-15T05:48:40.161Z,26.2
2017-07-15T05:49:40.856Z,26.3
2017-07-15T05:50:41.854Z,26.3
2017-07-15T05:51:42.867Z,26.3
2017-07-15T05:52:43.578Z,26.2
2017-07-15T05:53:44.483Z,26.3
2017-07-15T05:54:45.173Z,26.2
2017-07-15T05:55:45.968Z,26.2
2017-07-15T05:56:46.872Z,26.3
2017-07-15T05:57:47.595Z,26.3
2017-07-15T05:58:48.259Z,26.3
2017-07-15T05:59:48.950Z,26.3
2017-07-15T06:00:49.700Z,26.3
2017-07-15T06:01:50.387Z,26.4
2017-07-15T06:02:51.375Z,26.4
2017-07-15T06:03:52.198Z,26.3
2017-07-15T06:04:52.943Z,26.3
2017-07-15T06:05:53.674Z,26.4
2017-07-15T06:06:54.368Z,26.3
2017-07-15T06:07:55.089Z,26.4
2017-07-15T06:08:56.211Z,26.4
2017-07-15T06:09:57.056Z,26.4
2017-07-15T06:10:57.757Z,26.4
2017-07-15T06:11:58.492Z,26.4
2017-07-15T06:12:59.187Z,26.5
2017-07-15T06:13:59.887Z,26.5
2017-07-15T06:15:00.874Z,26.4
2017-07-15T06:16:01.599Z,26.5
2017-07-15T06:17:02.406Z,26.4
2017-07-15T06:18:03.149Z,26.5
2017-07-15T06:19:03.903Z,26.5
2017-07-15T06:20:04.984Z,26.5
2017-07-15T06:21:05.917Z,26.6
2017-07-15T06:22:06.646Z,26.6
2017-07-15T06:23:07.345Z,26.6
2017-07-15T06:24:08.082Z,26.5
2017-07-15T06:25:08.837Z,26.6
2017-07-15T06:26:09.529Z,26.6
2017-07-15T06:27:10.329Z,26.5
2017-07-15T06:28:11.337Z,26.6
2017-07-15T06:29:12.076Z,26.6
2017-07-15T06:30:12.782Z,26.6
2017-07-15T06:31:13.485Z,26.6
2017-07-15T06:32:14.400Z,26.6
2017-07-15T06:33:15.134Z,26.6
2017-07-15T06:34:16.146Z,26.6
2017-07-15T06:35:16.887Z,26.7
2017-07-15T06:36:17.596Z,26.7
2017-07-15T06:37:18.387Z,26.6
2017-07-15T06:38:19.050Z,26.6
2017-07-15T06:39:19.782Z,26.6
2017-07-15T06:40:20.490Z,26.6
2017-07-15T06:41:21.426Z,26.6
2017-07-15T06:42:22.147Z,26.7
2017-07-15T06:43:22.819Z,26.6
2017-07-15T06:44:23.902Z,26.7
2017-07-15T06:45:24.649Z,26.6
2017-07-15T06:46:25.684Z,26.6
2017-07-15T06:47:26.698Z,26.6
2017-07-15T06:48:27.365Z,26.7
2017-07-15T06:49:28.199Z,26.7
2017-07-15T06:50:28.969Z,26.7
2017-07-15T06:51:29.636Z,26.7
2017-07-15T06:52:30.314Z,26.7
2017-07-15T06:53:31.366Z,26.7
2017-07-15T06:54:32.229Z,26.7
2017-07-15T06:55:32.942Z,26.7
2017-07-15T06:56:33.642Z,26.7
2017-07-15T06:57:34.342Z,26.7
2017-07-15T06:58:35.033Z,26.7
2017-07-15T06:59:36.111Z,26.7
2017-07-15T07:00:36.872Z,26.7
2017-07-15T07:01:37.557Z,26.7
2017-07-15T07:02:38.376Z,26.7
2017-07-15T07:03:39.201Z,26.7
2017-07-15T07:04:41.101Z,26.7
2017-07-15T07:05:41.775Z,26.7
2017-07-15T07:06:42.454Z,26.7
2017-07-15T07:07:43.136Z,26.7
2017-07-15T07:08:43.890Z,26.7
2017-07-15T07:09:44.623Z,26.7
2017-07-15T07:10:45.575Z,26.7
2017-07-15T07:11:46.361Z,26.7
2017-07-15T07:12:47.065Z,26.7
2017-07-15T07:13:47.797Z,26.7
2017-07-15T07:14:48.605Z,26.7
2017-07-15T07:15:49.301Z,26.7
2017-07-15T07:16:50.385Z,26.7
2017-07-15T07:17:51.058Z,26.7
2017-07-15T07:18:51.883Z,26.7
2017-07-15T07:19:52.704Z,26.7
2017-07-15T07:20:53.359Z,26.7
2017-07-15T07:21:54.088Z,26.8
2017-07-15T07:22:55.077Z,26.7
2017-07-15T07:23:56.307Z,26.7
2017-07-15T07:24:56.991Z,26.7
2017-07-15T07:25:57.701Z,26.9
2017-07-15T07:26:58.394Z,26.8
2017-07-15T07:27:59.098Z,26.8
2017-07-15T07:28:59.975Z,26.9
2017-07-15T07:30:00.989Z,26.8
2017-07-15T07:31:01.685Z,26.9
2017-07-15T07:32:02.390Z,26.8
2017-07-15T07:33:03.092Z,26.9
2017-07-15T07:34:03.888Z,26.9
2017-07-15T07:35:04.587Z,26.9
2017-07-15T07:36:05.579Z,27.0
2017-07-15T07:37:06.283Z,27.1
2017-07-15T07:38:06.966Z,26.9
2017-07-15T07:39:07.724Z,27.0
2017-07-15T07:40:08.399Z,27.0
2017-07-15T07:41:09.081Z,27.0
2017-07-15T07:42:10.030Z,27.1
2017-07-15T07:43:10.742Z,27.2
2017-07-15T07:44:11.440Z,27.1
2017-07-15T07:45:12.135Z,27.2
2017-07-15T07:46:12.869Z,27.2
2017-07-15T07:47:13.577Z,27.2
2017-07-15T07:48:14.504Z,27.2
2017-07-15T07:49:15.221Z,27.1
2017-07-15T07:50:15.896Z,27.2
2017-07-15T07:51:16.703Z,27.2
2017-07-15T07:52:17.437Z,27.3
2017-07-15T07:53:18.123Z,27.3
2017-07-15T07:54:18.813Z,27.3
2017-07-15T07:55:19.766Z,27.3
2017-07-15T07:56:20.517Z,27.3
2017-07-15T07:57:21.231Z,27.3
2017-07-15T07:58:21.904Z,27.3
2017-07-15T07:59:22.599Z,27.4
2017-07-15T08:00:23.299Z,27.4
2017-07-15T08:01:24.296Z,27.3
2017-07-15T08:02:25.054Z,27.3
2017-07-15T08:03:25.763Z,27.3
2017-07-15T08:04:26.446Z,27.3
2017-07-15T08:05:27.161Z,27.4
2017-07-15T08:06:27.846Z,27.4
2017-07-15T08:07:28.798Z,27.4
2017-07-15T08:08:29.491Z,27.5
2017-07-15T08:09:30.199Z,27.4
2017-07-15T08:10:30.895Z,27.5
2017-07-15T08:11:31.571Z,27.4
2017-07-15T08:12:32.321Z,27.4
2017-07-15T08:13:33.269Z,27.4
2017-07-15T08:14:34.038Z,27.5
2017-07-15T08:15:34.700Z,27.4
2017-07-15T08:16:35.658Z,27.4
2017-07-15T08:17:36.361Z,27.4
2017-07-15T08:18:37.335Z,27.5
2017-07-15T08:19:38.267Z,27.4
2017-07-15T08:20:39.034Z,27.4
2017-07-15T08:21:39.738Z,27.4
2017-07-15T08:22:40.477Z,27.4
2017-07-15T08:23:41.226Z,27.5
2017-07-15T08:24:42.221Z,27.5
2017-07-15T08:25:43.222Z,27.5
2017-07-15T08:26:43.937Z,27.6
2017-07-15T08:27:44.617Z,27.5
2017-07-15T08:28:45.315Z,27.6
2017-07-15T08:29:46.000Z,27.6
2017-07-15T08:30:46.803Z,27.5
2017-07-15T08:31:47.772Z,27.5
2017-07-15T08:32:48.479Z,27.5
2017-07-15T08:33:49.141Z,27.6
2017-07-15T08:34:49.840Z,27.6
2017-07-15T08:35:50.995Z,27.7
2017-07-15T08:36:51.722Z,27.6
2017-07-15T08:37:52.569Z,27.7
2017-07-15T08:38:53.591Z,27.6
2017-07-15T08:39:54.296Z,27.7
2017-07-15T08:40:55.026Z,27.7
2017-07-15T08:41:55.739Z,27.7
2017-07-15T08:42:56.658Z,27.7
2017-07-15T08:43:57.369Z,27.7
2017-07-15T08:44:58.413Z,27.7
2017-07-15T08:45:59.116Z,27.7
2017-07-15T08:46:59.802Z,27.7
2017-07-15T08:48:00.539Z,27.7
2017-07-15T08:49:01.230Z,27.7
2017-07-15T08:50:01.984Z,27.8
2017-07-15T08:51:02.652Z,27.8
2017-07-15T08:52:03.451Z,27.8
2017-07-15T08:53:04.311Z,27.8
2017-07-15T08:54:05.005Z,27.7
2017-07-15T08:55:05.912Z,27.8
2017-07-15T08:56:06.858Z,27.9
2017-07-15T08:57:07.601Z,27.8
2017-07-15T08:58:08.261Z,27.8
2017-07-15T08:59:08.973Z,27.9
2017-07-15T09:00:09.771Z,27.9
2017-07-15T09:01:10.481Z,28.0
2017-07-15T09:02:11.424Z,27.9
2017-07-15T09:03:12.217Z,28.0
2017-07-15T09:04:12.934Z,28.0
2017-07-15T09:05:13.611Z,28.0
2017-07-15T09:06:14.455Z,27.9
2017-07-15T09:07:15.143Z,28.0
2017-07-15T09:08:15.885Z,28.0
2017-07-15T09:09:16.861Z,28.0
2017-07-15T09:10:17.548Z,28.1
2017-07-15T09:11:18.350Z,28.1
2017-07-15T09:12:19.053Z,28.0
2017-07-15T09:13:19.739Z,28.0
2017-07-15T09:14:20.507Z,28.0
2017-07-15T09:15:21.489Z,28.0
2017-07-15T09:16:22.232Z,28.1
2017-07-15T09:17:22.909Z,28.1
2017-07-15T09:18:23.657Z,28.1
2017-07-15T09:19:24.368Z,28.1
2017-07-15T09:20:25.044Z,28.2
2017-07-15T09:21:26.049Z,28.2
2017-07-15T09:22:26.750Z,28.2
2017-07-15T09:23:27.509Z,28.2
2017-07-15T09:24:28.202Z,28.3
2017-07-15T09:25:28.949Z,28.2
2017-07-15T09:26:29.646Z,28.2
2017-07-15T09:27:30.591Z,28.2
2017-07-15T09:28:31.333Z,28.2
2017-07-15T09:29:32.022Z,28.2
2017-07-15T09:30:33.013Z,28.2
2017-07-15T09:31:33.660Z,28.3
2017-07-15T09:32:34.397Z,28.2
2017-07-15T09:33:35.747Z,28.3
2017-07-15T09:34:36.474Z,28.2
2017-07-15T09:35:37.177Z,28.3
2017-07-15T09:36:37.907Z,28.3
2017-07-15T09:37:38.653Z,28.3
2017-07-15T09:38:39.517Z,28.3
2017-07-15T09:39:40.493Z,28.4
2017-07-15T09:40:41.195Z,28.3
2017-07-15T09:41:41.911Z,28.5
2017-07-15T09:42:42.596Z,28.4
2017-07-15T09:43:43.346Z,28.4
2017-07-15T09:44:44.065Z,28.4
2017-07-15T09:45:45.015Z,28.4
2017-07-15T09:46:45.772Z,28.5
2017-07-15T09:47:46.579Z,28.6
2017-07-15T09:48:47.241Z,28.5
2017-07-15T09:49:47.920Z,28.5
2017-07-15T09:50:48.641Z,28.6
2017-07-15T09:51:49.349Z,28.6
2017-07-15T09:52:50.270Z,28.5
2017-07-15T09:53:51.261Z,28.5
2017-07-15T09:54:51.951Z,28.6
2017-07-15T09:55:52.719Z,28.5
2017-07-15T09:56:53.390Z,28.5
2017-07-15T09:57:54.096Z,28.4
2017-07-15T09:58:55.037Z,28.6
2017-07-15T09:59:55.738Z,28.5
2017-07-15T10:00:56.440Z,28.5
2017-07-15T10:01:57.120Z,28.6
2017-07-15T10:02:57.945Z,28.5
2017-07-15T10:03:58.608Z,28.6
2017-07-15T10:04:59.610Z,28.6
2017-07-15T10:06:00.327Z,28.5
2017-07-15T10:07:01.026Z,28.5
2017-07-15T10:08:01.767Z,28.6
2017-07-15T10:09:02.451Z,28.6
2017-07-15T10:10:03.144Z,28.6
2017-07-15T10:11:04.166Z,28.6
2017-07-15T10:12:04.828Z,28.6
2017-07-15T10:13:05.686Z,28.7
2017-07-15T10:14:06.368Z,28.6
2017-07-15T10:15:07.084Z,28.6
2017-07-15T10:16:07.813Z,28.6
2017-07-15T10:17:08.731Z,28.7
2017-07-15T10:18:09.574Z,28.6
2017-07-15T10:19:10.324Z,28.8
2017-07-15T10:20:11.072Z,28.7
2017-07-15T10:21:11.771Z,28.7
2017-07-15T10:22:12.452Z,28.8
2017-07-15T10:23:13.141Z,28.8
2017-07-15T10:24:14.147Z,28.8
2017-07-15T10:25:14.856Z,28.8
2017-07-15T10:26:15.557Z,28.8
2017-07-15T10:27:16.297Z,28.8
2017-07-15T10:28:17.040Z,28.9
2017-07-15T10:29:17.713Z,28.9
2017-07-15T10:30:18.822Z,28.8
2017-07-15T10:31:19.493Z,28.9
2017-07-15T10:32:20.197Z,28.9
2017-07-15T10:33:20.895Z,28.9
2017-07-15T10:34:21.581Z,28.9
2017-07-15T10:35:22.579Z,28.9
2017-07-15T10:36:23.275Z,28.9
2017-07-15T10:37:24.286Z,28.9
2017-07-15T10:38:24.987Z,28.9
2017-07-15T10:39:25.689Z,28.9
2017-07-15T10:40:26.489Z,28.8
2017-07-15T10:41:27.187Z,28.8
2017-07-15T10:42:27.885Z,28.9
2017-07-15T10:43:28.841Z,28.9
2017-07-15T10:44:29.597Z,29.0
2017-07-15T10:45:30.502Z,28.9
2017-07-15T10:46:31.196Z,29.0
2017-07-15T10:47:31.994Z,28.9
2017-07-15T10:48:32.716Z,29.0
2017-07-15T10:49:33.724Z,28.9
2017-07-15T10:50:34.526Z,28.9
2017-07-15T10:51:35.224Z,28.9
2017-07-15T10:52:35.919Z,29.0
2017-07-15T10:53:36.687Z,29.0
2017-07-15T10:54:37.402Z,28.9
2017-07-15T10:55:38.406Z,29.0
2017-07-15T10:56:39.087Z,28.9
2017-07-15T10:57:39.781Z,29.0
2017-07-15T10:58:40.484Z,29.0
2017-07-15T10:59:41.168Z,29.1
2017-07-15T11:00:41.929Z,29.1
2017-07-15T11:01:42.923Z,29.0
2017-07-15T11:02:43.616Z,29.1
2017-07-15T11:03:44.378Z,29.1
2017-07-15T11:04:45.114Z,29.1
2017-07-15T11:05:45.966Z,29.0
2017-07-15T11:06:46.647Z,29.1
2017-07-15T11:07:47.350Z,29.0
2017-07-15T11:08:48.347Z,29.1
2017-07-15T11:09:49.060Z,29.1
2017-07-15T11:10:49.962Z,29.1
2017-07-15T11:11:50.651Z,29.1
2017-07-15T11:12:51.384Z,29.1
2017-07-15T11:13:52.102Z,29.1
2017-07-15T11:14:53.164Z,29.1
2017-07-15T11:15:53.918Z,29.0
2017-07-15T11:16:54.596Z,29.0
2017-07-15T11:17:55.648Z,29.0
2017-07-15T11:18:56.312Z,29.1
2017-07-15T11:19:57.009Z,29.0
2017-07-15T11:20:57.805Z,29.1
2017-07-15T11:21:59.417Z,29.1
2017-07-15T11:23:00.508Z,29.1
2017-07-15T11:24:01.208Z,29.1
2017-07-15T11:25:02.018Z,29.1
2017-07-15T11:26:02.689Z,29.1
2017-07-15T11:27:03.370Z,29.1
2017-07-15T11:28:04.095Z,29.0
2017-07-15T11:29:04.816Z,29.2
2017-07-15T11:30:05.521Z,29.2
2017-07-15T11:32:24.650Z,29.1
2017-07-15T11:33:25.664Z,29.1
2017-07-15T11:34:26.350Z,29.3
2017-07-15T11:35:27.105Z,29.3
2017-07-15T11:36:27.943Z,29.1
2017-07-15T11:37:28.639Z,29.2
2017-07-15T11:38:29.341Z,29.3
2017-07-15T11:39:30.098Z,29.2
2017-07-15T11:40:30.817Z,29.2
2017-07-15T11:41:31.695Z,29.2
2017-07-15T11:42:32.673Z,29.2
2017-07-15T11:43:33.623Z,29.2
2017-07-15T11:44:34.356Z,29.1
2017-07-15T11:45:35.152Z,29.2
2017-07-15T11:46:35.965Z,29.2
2017-07-15T11:47:36.987Z,29.2
2017-07-15T11:48:37.647Z,29.1
2017-07-15T11:49:38.838Z,29.2
2017-07-15T11:51:55.056Z,29.3
2017-07-15T11:52:55.747Z,29.2
2017-07-15T11:53:56.564Z,29.3
2017-07-15T11:54:57.332Z,29.3
2017-07-15T11:55:58.368Z,29.3
2017-07-15T11:56:59.177Z,29.2
2017-07-15T11:57:59.880Z,29.3
2017-07-15T11:59:00.614Z,29.4
2017-07-15T12:00:01.344Z,29.4
2017-07-15T12:01:02.089Z,29.4
2017-07-15T12:02:03.076Z,29.4
2017-07-15T12:03:04.128Z,29.4
2017-07-15T12:04:04.848Z,29.4
2017-07-15T12:05:05.488Z,29.5
2017-07-15T12:06:06.199Z,29.4
2017-07-15T12:07:06.910Z,29.5
2017-07-15T12:08:07.877Z,29.5
2017-07-15T12:09:08.555Z,29.4
2017-07-15T12:10:09.273Z,29.5
2017-07-15T12:11:09.987Z,29.5
2017-07-15T12:12:10.814Z,29.5
2017-07-15T12:13:11.844Z,29.5
2017-07-15T12:14:12.871Z,29.6
2017-07-15T12:15:13.597Z,29.6
2017-07-15T12:16:14.283Z,29.6
2017-07-15T12:17:15.296Z,29.7
2017-07-15T12:18:16.095Z,29.6
2017-07-15T12:19:16.752Z,29.7
2017-07-15T12:20:17.720Z,29.8
2017-07-15T12:21:18.414Z,29.7
2017-07-15T12:22:19.497Z,29.8
2017-07-15T12:23:20.189Z,29.7
2017-07-15T12:24:20.982Z,29.7
2017-07-15T12:25:21.702Z,29.9
2017-07-15T12:26:22.712Z,29.8
2017-07-15T12:27:23.397Z,29.8
2017-07-15T12:28:24.124Z,29.8
2017-07-15T12:29:24.985Z,30.0
2017-07-15T12:30:25.758Z,30.0
2017-07-15T12:31:26.448Z,30.0
2017-07-15T12:32:27.443Z,30.1
2017-07-15T12:33:28.435Z,30.0
2017-07-15T12:34:29.393Z,30.0
2017-07-15T12:35:30.073Z,30.1
2017-07-15T12:36:30.745Z,30.1
2017-07-15T12:37:31.460Z,30.2
2017-07-15T12:38:32.442Z,30.1
2017-07-15T12:39:33.211Z,30.2
2017-07-15T12:40:33.993Z,30.2
2017-07-15T12:41:34.745Z,30.3
2017-07-15T12:42:35.416Z,30.2
2017-07-15T12:43:36.169Z,30.3
2017-07-15T12:44:37.173Z,30.3
2017-07-15T12:45:37.924Z,30.3
2017-07-15T12:46:39.145Z,30.3
2017-07-15T12:47:40.088Z,30.4
2017-07-15T12:48:40.774Z,30.3
2017-07-15T12:49:41.490Z,30.3
2017-07-15T12:50:42.584Z,30.4
2017-07-15T12:51:43.326Z,30.4
2017-07-15T12:52:44.087Z,30.4
2017-07-15T12:53:44.775Z,30.3
2017-07-15T12:54:45.476Z,30.4
2017-07-15T12:55:46.263Z,30.4
2017-07-15T12:56:46.933Z,30.4
2017-07-15T12:57:47.985Z,30.4
2017-07-15T12:58:48.687Z,30.4
2017-07-15T12:59:49.369Z,30.5
2017-07-15T13:00:50.069Z,30.4
2017-07-15T13:01:50.851Z,30.4
2017-07-15T13:02:51.567Z,30.4
2017-07-15T13:03:52.583Z,30.4
2017-07-15T13:04:53.287Z,30.4
2017-07-15T13:05:53.980Z,30.4
2017-07-15T13:06:54.934Z,30.5
2017-07-15T13:07:55.666Z,30.4
2017-07-15T13:08:56.358Z,30.5
2017-07-15T13:09:57.328Z,30.5
2017-07-15T13:10:58.074Z,30.5
2017-07-15T13:11:58.840Z,30.5
2017-07-15T13:12:59.529Z,30.5
2017-07-15T13:14:00.223Z,30.5
2017-07-15T13:15:00.977Z,30.5
2017-07-15T13:16:01.969Z,30.5
2017-07-15T13:17:02.674Z,30.5
2017-07-15T13:18:03.394Z,30.4
2017-07-15T13:19:04.077Z,30.5
2017-07-15T13:20:04.765Z,30.5
2017-07-15T13:21:05.461Z,30.5
2017-07-15T13:22:06.177Z,30.5
2017-07-15T13:23:06.911Z,30.5
2017-07-15T13:24:07.612Z,30.5
2017-07-15T13:25:08.318Z,30.5
2017-07-15T13:26:09.011Z,30.6
2017-07-15T13:27:09.781Z,30.5
2017-07-15T13:28:10.823Z,30.5
2017-07-15T13:29:11.643Z,30.7
2017-07-15T13:30:12.395Z,30.7
2017-07-15T13:31:13.120Z,30.7
2017-07-15T13:32:13.911Z,30.8
2017-07-15T13:33:14.944Z,30.8